createdAt,value
2017-01-25T00:00:36.706Z,0
2017-01-25T00:01:37.074Z,0
2017-01-25T00:02:37.039Z,0
2017-01-25T00:03:36.616Z,0
2017-01-25T00:04:36.603Z,0
2017-01-25T00:05:36.555Z,0
2017-01-25T00:06:36.938Z,0
2017-01-25T00:07:36.919Z,0
2017-01-25T00:08:36.874Z,0
2017-01-25T00:09:36.443Z,0
2017-01-25T00:10:36.829Z,0
2017-01-25T00:11:36.444Z,0
2017-01-25T00:12:36.395Z,0
2017-01-25T00:13:36.733Z,0
2017-01-25T00:14:36.306Z,0
2017-01-25T00:15:36.266Z,0
2017-01-25T00:16:36.255Z,0
2017-01-25T00:17:36.612Z,0
2017-01-25T00:18:36.586Z,0
2017-01-25T00:19:36.550Z,0
2017-01-25T00:20:36.530Z,0
2017-01-25T00:21:35.701Z,0
2017-01-25T00:22:36.496Z,0
2017-01-25T00:23:36.441Z,0
2017-01-25T00:24:36.410Z,0
2017-01-25T00:25:36.389Z,0
2017-01-25T00:26:36.002Z,0
2017-01-25T00:27:36.329Z,0
2017-01-25T00:28:36.303Z,0
2017-01-25T00:29:36.272Z,0
2017-01-25T00:30:35.836Z,0
2017-01-25T00:31:36.554Z,0
2017-01-25T00:32:36.228Z,0
2017-01-25T00:33:36.155Z,0
2017-01-25T00:34:35.737Z,0
2017-01-25T00:35:36.094Z,0
2017-01-25T00:36:36.061Z,0
2017-01-25T00:37:35.636Z,0
2017-01-25T00:38:36.003Z,0
2017-01-25T00:39:36.033Z,0
2017-01-25T00:40:35.550Z,0
2017-01-25T00:41:35.927Z,0
2017-01-25T00:42:35.485Z,0
2017-01-25T00:43:35.861Z,0
2017-01-25T00:44:35.887Z,0
2017-01-25T00:45:35.802Z,0
2017-01-25T00:46:35.378Z,0
2017-01-25T00:47:35.737Z,0
2017-01-25T00:48:35.716Z,0
2017-01-25T00:49:35.300Z,0
2017-01-25T00:50:35.733Z,0
2017-01-25T00:51:35.232Z,0
2017-01-25T00:52:34.417Z,0
2017-01-25T00:53:35.576Z,0
2017-01-25T00:54:35.143Z,0
2017-01-25T00:55:35.131Z,0
2017-01-25T00:56:34.730Z,0
2017-01-25T00:57:35.451Z,0
2017-01-25T00:58:35.034Z,0
2017-01-25T00:59:35.393Z,0
2017-01-25T01:00:35.367Z,0
2017-01-25T01:01:34.534Z,0
2017-01-25T01:02:35.311Z,0
2017-01-25T01:03:35.288Z,0
2017-01-25T01:04:34.845Z,0
2017-01-25T01:05:34.812Z,0
2017-01-25T01:06:35.190Z,0
2017-01-25T01:07:34.362Z,0
2017-01-25T01:08:35.128Z,0
2017-01-25T01:09:35.112Z,0
2017-01-25T01:10:34.667Z,0
2017-01-25T01:11:35.068Z,0
2017-01-25T01:12:34.619Z,0
2017-01-25T01:13:34.595Z,0
2017-01-25T01:14:34.949Z,0
2017-01-25T01:15:34.931Z,0
2017-01-25T01:16:34.499Z,0
2017-01-25T01:17:34.469Z,0
2017-01-25T01:18:34.434Z,0
2017-01-25T01:19:34.904Z,0
2017-01-25T01:20:34.398Z,0
2017-01-25T01:21:33.954Z,0
2017-01-25T01:22:33.923Z,0
2017-01-25T01:23:34.294Z,0
2017-01-25T01:24:34.257Z,0
2017-01-25T01:25:34.228Z,0
2017-01-25T01:26:34.600Z,0
2017-01-25T01:27:33.772Z,0
2017-01-25T01:28:34.572Z,0
2017-01-25T01:29:34.506Z,0
2017-01-25T01:30:34.509Z,0
2017-01-25T01:31:34.094Z,0
2017-01-25T01:32:34.434Z,0
2017-01-25T01:33:34.419Z,0
2017-01-25T01:34:34.416Z,0
2017-01-25T01:35:34.338Z,0
2017-01-25T01:36:34.298Z,0
2017-01-25T01:37:34.282Z,0
2017-01-25T01:38:34.254Z,0
2017-01-25T01:39:33.817Z,0
2017-01-25T01:40:34.096Z,0
2017-01-25T01:41:33.758Z,0
2017-01-25T01:42:33.740Z,0
2017-01-25T01:43:34.096Z,0
2017-01-25T01:44:34.064Z,0
2017-01-25T01:45:33.707Z,0
2017-01-25T01:46:33.909Z,0
2017-01-25T01:47:33.986Z,0
2017-01-25T01:48:33.954Z,0
2017-01-25T01:49:33.923Z,0
2017-01-25T01:50:33.491Z,0
2017-01-25T01:51:33.859Z,0
2017-01-25T01:52:33.434Z,0
2017-01-25T01:53:33.009Z,0
2017-01-25T01:54:33.373Z,0
2017-01-25T01:55:33.384Z,0
2017-01-25T01:56:32.950Z,0
2017-01-25T01:57:33.291Z,0
2017-01-25T01:58:33.655Z,0
2017-01-25T01:59:33.226Z,0
2017-01-25T02:00:33.220Z,0
2017-01-25T02:01:33.571Z,0
2017-01-25T02:02:33.590Z,0
2017-01-25T02:03:33.511Z,0
2017-01-25T02:04:33.476Z,0
2017-01-25T02:05:33.054Z,0
2017-01-25T02:06:33.013Z,0
2017-01-25T02:07:32.984Z,0
2017-01-25T02:08:32.962Z,0
2017-01-25T02:09:33.354Z,0
2017-01-25T02:10:32.901Z,0
2017-01-25T02:11:33.265Z,0
2017-01-25T02:12:33.244Z,0
2017-01-25T02:13:33.266Z,0
2017-01-25T02:14:33.181Z,0
2017-01-25T02:15:32.349Z,0
2017-01-25T02:16:31.535Z,0
2017-01-25T02:17:32.290Z,0
2017-01-25T02:18:33.070Z,0
2017-01-25T02:19:33.034Z,0
2017-01-25T02:20:33.002Z,0
2017-01-25T02:21:33.033Z,0
2017-01-25T02:22:32.939Z,0
2017-01-25T02:23:32.920Z,0
2017-01-25T02:24:32.875Z,0
2017-01-25T02:25:32.501Z,0
2017-01-25T02:26:32.020Z,0
2017-01-25T02:27:32.392Z,0
2017-01-25T02:28:32.765Z,0
2017-01-25T02:29:32.737Z,0
2017-01-25T02:30:32.708Z,0
2017-01-25T02:31:32.319Z,0
2017-01-25T02:32:32.942Z,0
2017-01-25T02:33:32.216Z,0
2017-01-25T02:34:32.584Z,0
2017-01-25T02:35:32.154Z,0
2017-01-25T02:36:32.519Z,0
2017-01-25T02:37:32.520Z,0
2017-01-25T02:38:32.365Z,0
2017-01-25T02:39:32.035Z,0
2017-01-25T02:40:32.006Z,0
2017-01-25T02:41:32.372Z,0
2017-01-25T02:42:32.342Z,0
2017-01-25T02:43:31.916Z,0
2017-01-25T02:44:31.927Z,0
2017-01-25T02:45:32.259Z,0
2017-01-25T02:46:31.833Z,0
2017-01-25T02:47:31.786Z,0
2017-01-25T02:48:31.768Z,0
2017-01-25T02:49:32.143Z,0
2017-01-25T02:50:31.714Z,0
2017-01-25T02:51:32.079Z,0
2017-01-25T02:52:31.641Z,0
2017-01-25T02:53:32.022Z,0
2017-01-25T02:54:31.631Z,0
2017-01-25T02:55:31.566Z,0
2017-01-25T02:56:31.130Z,0
2017-01-25T02:57:31.494Z,0
2017-01-25T02:58:32.169Z,0
2017-01-25T02:59:31.822Z,0
2017-01-25T03:00:31.798Z,0
2017-01-25T03:01:31.416Z,0
2017-01-25T03:02:31.751Z,0
2017-01-25T03:03:31.362Z,0
2017-01-25T03:04:31.680Z,0
2017-01-25T03:05:30.852Z,0
2017-01-25T03:06:31.615Z,0
2017-01-25T03:07:30.815Z,0
2017-01-25T03:08:31.570Z,0
2017-01-25T03:09:31.558Z,0
2017-01-25T03:10:31.495Z,0
2017-01-25T03:11:30.672Z,0
2017-01-25T03:12:31.438Z,0
2017-01-25T03:13:31.458Z,0
2017-01-25T03:14:30.974Z,0
2017-01-25T03:15:30.542Z,0
2017-01-25T03:16:31.318Z,0
2017-01-25T03:17:30.884Z,0
2017-01-25T03:18:30.858Z,0
2017-01-25T03:19:31.237Z,0
2017-01-25T03:20:30.403Z,0
2017-01-25T03:21:31.174Z,0
2017-01-25T03:22:30.736Z,0
2017-01-25T03:23:31.112Z,0
2017-01-25T03:24:31.082Z,0
2017-01-25T03:25:30.643Z,0
2017-01-25T03:26:30.620Z,0
2017-01-25T03:27:30.247Z,0
2017-01-25T03:28:30.865Z,0
2017-01-25T03:29:30.925Z,0
2017-01-25T03:30:30.893Z,0
2017-01-25T03:31:30.911Z,0
2017-01-25T03:32:30.432Z,0
2017-01-25T03:33:30.809Z,0
2017-01-25T03:34:30.368Z,0
2017-01-25T03:35:30.341Z,0
2017-01-25T03:36:30.716Z,0
2017-01-25T03:37:29.934Z,0
2017-01-25T03:38:30.253Z,0
2017-01-25T03:39:30.629Z,0
2017-01-25T03:40:30.192Z,0
2017-01-25T03:41:30.167Z,0
2017-01-25T03:42:30.534Z,0
2017-01-25T03:43:29.711Z,0
2017-01-25T03:44:30.480Z,0
2017-01-25T03:45:30.047Z,0
2017-01-25T03:46:30.011Z,0
2017-01-25T03:47:30.381Z,0
2017-01-25T03:48:29.999Z,0
2017-01-25T03:49:30.324Z,0
2017-01-25T03:50:30.292Z,0
2017-01-25T03:51:30.270Z,0
2017-01-25T03:52:29.840Z,0
2017-01-25T03:53:29.805Z,0
2017-01-25T03:54:29.776Z,0
2017-01-25T03:55:29.748Z,0
2017-01-25T03:56:30.114Z,0
2017-01-25T03:57:30.126Z,0
2017-01-25T03:58:29.662Z,0
2017-01-25T03:59:30.088Z,0
2017-01-25T04:00:29.597Z,0
2017-01-25T04:01:29.558Z,0
2017-01-25T04:02:30.022Z,0
2017-01-25T04:03:29.895Z,0
2017-01-25T04:04:29.916Z,0
2017-01-25T04:05:29.847Z,0
2017-01-25T04:06:29.806Z,0
2017-01-25T04:07:29.774Z,0
2017-01-25T04:08:29.747Z,0
2017-01-25T04:09:29.026Z,0
2017-01-25T04:10:29.697Z,0
2017-01-25T04:11:29.663Z,0
2017-01-25T04:12:29.633Z,0
2017-01-25T04:13:29.602Z,0
2017-01-25T04:14:29.478Z,0
2017-01-25T04:15:28.738Z,0
2017-01-25T04:16:29.127Z,0
2017-01-25T04:17:28.728Z,0
2017-01-25T04:18:29.055Z,0
2017-01-25T04:19:29.026Z,0
2017-01-25T04:20:29.391Z,0
2017-01-25T04:21:28.558Z,0
2017-01-25T04:22:29.332Z,0
2017-01-25T04:23:28.903Z,0
2017-01-25T04:24:29.264Z,0
2017-01-25T04:25:29.244Z,0
2017-01-25T04:26:29.206Z,0
2017-01-25T04:27:29.182Z,0
2017-01-25T04:28:29.132Z,0
2017-01-25T04:29:28.320Z,0
2017-01-25T04:30:29.157Z,0
2017-01-25T04:31:29.064Z,0
2017-01-25T04:32:28.631Z,0
2017-01-25T04:33:29.001Z,0
2017-01-25T04:34:28.562Z,0
2017-01-25T04:35:28.931Z,0
2017-01-25T04:36:28.952Z,0
2017-01-25T04:37:28.061Z,0
2017-01-25T04:38:28.440Z,0
2017-01-25T04:39:28.403Z,0
2017-01-25T04:40:28.785Z,0
2017-01-25T04:41:28.360Z,0
2017-01-25T04:42:28.725Z,0
2017-01-25T04:43:28.689Z,0
2017-01-25T04:44:29.060Z,0
2017-01-25T04:45:28.233Z,0
2017-01-25T04:46:28.252Z,0
2017-01-25T04:47:28.600Z,0
2017-01-25T04:48:28.553Z,0
2017-01-25T04:49:27.723Z,0
2017-01-25T04:50:28.491Z,0
2017-01-25T04:51:28.102Z,0
2017-01-25T04:52:28.474Z,0
2017-01-25T04:53:27.985Z,0
2017-01-25T04:54:28.358Z,0
2017-01-25T04:55:27.526Z,0
2017-01-25T04:56:28.563Z,0
2017-01-25T04:57:27.915Z,0
2017-01-25T04:58:27.856Z,0
2017-01-25T04:59:28.210Z,0
2017-01-25T05:00:27.377Z,0
2017-01-25T05:01:27.739Z,0
2017-01-25T05:02:27.720Z,0
2017-01-25T05:03:28.114Z,0
2017-01-25T05:04:28.053Z,0
2017-01-25T05:05:28.025Z,0
2017-01-25T05:06:27.186Z,0
2017-01-25T05:07:27.562Z,0
2017-01-25T05:08:27.929Z,0
2017-01-25T05:09:27.916Z,0
2017-01-25T05:10:27.867Z,0
2017-01-25T05:11:27.875Z,0
2017-01-25T05:12:27.411Z,0
2017-01-25T05:13:26.973Z,0
2017-01-25T05:14:27.348Z,0
2017-01-25T05:15:27.316Z,0
2017-01-25T05:16:27.676Z,0
2017-01-25T05:17:27.656Z,0
2017-01-25T05:18:27.228Z,0
2017-01-25T05:19:27.242Z,0
2017-01-25T05:20:27.169Z,0
2017-01-25T05:21:27.587Z,0
2017-01-25T05:22:27.498Z,0
2017-01-25T05:23:27.080Z,0
2017-01-25T05:24:27.055Z,0
2017-01-25T05:25:27.413Z,0
2017-01-25T05:26:27.380Z,0
2017-01-25T05:27:26.977Z,0
2017-01-25T05:28:27.320Z,0
2017-01-25T05:29:27.319Z,0
2017-01-25T05:30:26.864Z,0
2017-01-25T05:31:26.431Z,0
2017-01-25T05:32:27.197Z,0
2017-01-25T05:33:26.776Z,0
2017-01-25T05:34:26.755Z,0
2017-01-25T05:35:26.737Z,0
2017-01-25T05:36:27.075Z,0
2017-01-25T05:37:27.093Z,0
2017-01-25T05:38:27.031Z,0
2017-01-25T05:39:27.022Z,0
2017-01-25T05:40:26.950Z,0
2017-01-25T05:41:26.530Z,0
2017-01-25T05:42:26.493Z,0
2017-01-25T05:43:26.914Z,0
2017-01-25T05:44:26.880Z,0
2017-01-25T05:45:26.393Z,0
2017-01-25T05:46:25.567Z,0
2017-01-25T05:47:26.758Z,0
2017-01-25T05:48:26.301Z,0
2017-01-25T05:49:26.674Z,0
2017-01-25T05:50:26.671Z,0
2017-01-25T05:51:27.142Z,0
2017-01-25T05:52:25.786Z,0
2017-01-25T05:53:26.152Z,0
2017-01-25T05:54:26.178Z,0
2017-01-25T05:55:26.092Z,0
2017-01-25T05:56:26.057Z,0
2017-01-25T05:57:26.436Z,0
2017-01-25T05:58:25.998Z,0
2017-01-25T05:59:26.367Z,0
2017-01-25T06:00:26.334Z,0
2017-01-25T06:01:25.910Z,0
2017-01-25T06:02:26.272Z,0
2017-01-25T06:03:25.849Z,0
2017-01-25T06:04:25.812Z,0
2017-01-25T06:05:25.789Z,0
2017-01-25T06:06:26.148Z,0
2017-01-25T06:07:25.321Z,0
2017-01-25T06:08:26.093Z,0
2017-01-25T06:09:26.059Z,0
2017-01-25T06:10:26.059Z,0
2017-01-25T06:11:25.602Z,0
2017-01-25T06:12:25.572Z,0
2017-01-25T06:13:25.950Z,0
2017-01-25T06:14:25.909Z,0
2017-01-25T06:15:25.878Z,0
2017-01-25T06:16:25.849Z,0
2017-01-25T06:17:25.423Z,0
2017-01-25T06:18:25.778Z,0
2017-01-25T06:19:25.347Z,0
2017-01-25T06:20:24.924Z,0
2017-01-25T06:21:25.604Z,0
2017-01-25T06:22:25.320Z,0
2017-01-25T06:23:24.828Z,0
2017-01-25T06:24:25.199Z,0
2017-01-25T06:25:23.978Z,0
2017-01-25T06:26:25.550Z,0
2017-01-25T06:27:25.108Z,0
2017-01-25T06:28:24.681Z,0
2017-01-25T06:29:25.053Z,0
2017-01-25T06:30:25.018Z,0
2017-01-25T06:31:25.385Z,0
2017-01-25T06:32:24.952Z,0
2017-01-25T06:33:25.329Z,0
2017-01-25T06:34:24.889Z,0
2017-01-25T06:35:24.861Z,0
2017-01-25T06:36:24.885Z,0
2017-01-25T06:37:25.198Z,0
2017-01-25T06:38:25.169Z,0
2017-01-25T06:39:25.133Z,0
2017-01-25T06:40:24.711Z,0
2017-01-25T06:41:24.701Z,0
2017-01-25T06:42:25.053Z,0
2017-01-25T06:43:24.627Z,0
2017-01-25T06:44:24.984Z,0
2017-01-25T06:45:24.170Z,0
2017-01-25T06:46:24.968Z,0
2017-01-25T06:47:24.904Z,0
2017-01-25T06:48:24.062Z,0
2017-01-25T06:49:24.839Z,0
2017-01-25T06:50:24.402Z,0
2017-01-25T06:51:24.776Z,0
2017-01-25T06:52:24.336Z,0
2017-01-25T06:53:24.308Z,0
2017-01-25T06:54:24.685Z,0
2017-01-25T06:55:23.846Z,0
2017-01-25T06:56:24.620Z,0
2017-01-25T06:57:24.641Z,0
2017-01-25T06:58:24.603Z,0
2017-01-25T06:59:24.537Z,0
2017-01-25T07:00:24.521Z,0
2017-01-25T07:01:24.470Z,0
2017-01-25T07:02:24.431Z,0
2017-01-25T07:03:24.406Z,0
2017-01-25T07:04:23.977Z,0
2017-01-25T07:05:23.945Z,0
2017-01-25T07:06:24.322Z,0
2017-01-25T07:07:24.373Z,0
2017-01-25T07:08:23.853Z,0
2017-01-25T07:09:23.430Z,0
2017-01-25T07:10:24.185Z,5
2017-01-25T07:11:24.156Z,5
2017-01-25T07:12:24.139Z,5
2017-01-25T07:13:24.094Z,5
2017-01-25T07:14:23.666Z,5
2017-01-25T07:15:23.638Z,5
2017-01-25T07:16:24.017Z,5
2017-01-25T07:17:24.025Z,5
2017-01-25T07:18:23.938Z,10
2017-01-25T07:19:23.508Z,10
2017-01-25T07:20:23.880Z,10
2017-01-25T07:21:23.499Z,10
2017-01-25T07:22:23.420Z,10
2017-01-25T07:23:23.791Z,10
2017-01-25T07:24:23.758Z,15
2017-01-25T07:25:23.733Z,15
2017-01-25T07:26:23.696Z,15
2017-01-25T07:27:23.255Z,15
2017-01-25T07:28:23.635Z,20
2017-01-25T07:29:22.849Z,20
2017-01-25T07:30:22.873Z,20
2017-01-25T07:31:23.152Z,25
2017-01-25T07:32:23.510Z,25
2017-01-25T07:33:23.773Z,25
2017-01-25T07:34:23.476Z,30
2017-01-25T07:35:23.019Z,30
2017-01-25T07:36:23.379Z,30
2017-01-25T07:37:23.373Z,35
2017-01-25T07:38:23.321Z,35
2017-01-25T07:39:22.907Z,35
2017-01-25T07:40:23.264Z,40
2017-01-25T07:41:23.222Z,40
2017-01-25T07:42:23.502Z,40
2017-01-25T07:43:22.375Z,40
2017-01-25T07:44:23.135Z,40
2017-01-25T07:45:22.705Z,45
2017-01-25T07:46:22.273Z,45
2017-01-25T07:47:23.073Z,50
2017-01-25T07:48:23.025Z,50
2017-01-25T07:49:22.488Z,55
2017-01-25T07:50:22.953Z,55
2017-01-25T07:51:22.123Z,60
2017-01-25T07:52:22.601Z,60
2017-01-25T07:53:22.872Z,60
2017-01-25T07:54:22.437Z,65
2017-01-25T07:55:22.411Z,65
2017-01-25T07:56:21.981Z,65
2017-01-25T07:57:22.743Z,65
2017-01-25T07:58:22.731Z,70
2017-01-25T07:59:22.684Z,70
2017-01-25T08:00:22.662Z,70
2017-01-25T08:01:22.226Z,75
2017-01-25T08:02:22.607Z,75
2017-01-25T08:03:21.768Z,80
2017-01-25T08:04:21.784Z,80
2017-01-25T08:05:22.167Z,85
2017-01-25T08:06:22.084Z,90
2017-01-25T08:07:22.061Z,90
2017-01-25T08:08:22.421Z,95
2017-01-25T08:09:21.994Z,95
2017-01-25T08:10:22.361Z,95
2017-01-25T08:11:21.961Z,95
2017-01-25T08:12:22.305Z,100
2017-01-25T08:13:22.273Z,100
2017-01-25T08:14:22.440Z,105
2017-01-25T08:15:22.266Z,110
2017-01-25T08:16:21.819Z,110
2017-01-25T08:17:22.151Z,115
2017-01-25T08:18:21.323Z,115
2017-01-25T08:19:22.105Z,115
2017-01-25T08:20:21.666Z,115
2017-01-25T08:21:21.668Z,120
2017-01-25T08:22:22.015Z,125
2017-01-25T08:23:21.577Z,130
2017-01-25T08:24:21.955Z,130
2017-01-25T08:25:21.534Z,135
2017-01-25T08:26:21.904Z,130
2017-01-25T08:27:21.465Z,135
2017-01-25T08:28:21.898Z,140
2017-01-25T08:29:21.461Z,140
2017-01-25T08:30:20.989Z,140
2017-01-25T08:31:21.756Z,145
2017-01-25T08:32:21.744Z,145
2017-01-25T08:33:21.711Z,145
2017-01-25T08:34:21.728Z,150
2017-01-25T08:35:21.261Z,155
2017-01-25T08:36:21.239Z,155
2017-01-25T08:37:21.212Z,155
2017-01-25T08:38:21.567Z,155
2017-01-25T08:39:21.544Z,160
2017-01-25T08:40:21.115Z,160
2017-01-25T08:41:21.111Z,160
2017-01-25T08:42:21.465Z,160
2017-01-25T08:43:21.050Z,170
2017-01-25T08:44:21.420Z,165
2017-01-25T08:45:20.982Z,170
2017-01-25T08:46:21.369Z,170
2017-01-25T08:47:20.947Z,175
2017-01-25T08:48:21.300Z,175
2017-01-25T08:49:20.513Z,175
2017-01-25T08:50:20.847Z,175
2017-01-25T08:51:21.239Z,175
2017-01-25T08:52:21.256Z,175
2017-01-25T08:53:20.384Z,180
2017-01-25T08:54:21.148Z,175
2017-01-25T08:55:21.122Z,180
2017-01-25T08:56:21.102Z,185
2017-01-25T08:57:20.702Z,185
2017-01-25T08:58:21.042Z,190
2017-01-25T08:59:20.625Z,190
2017-01-25T09:00:20.596Z,190
2017-01-25T09:01:21.619Z,195
2017-01-25T09:02:20.546Z,195
2017-01-25T09:03:20.532Z,200
2017-01-25T09:04:20.891Z,195
2017-01-25T09:05:20.535Z,180
2017-01-25T09:06:20.444Z,180
2017-01-25T09:07:20.418Z,180
2017-01-25T09:08:20.794Z,175
2017-01-25T09:09:20.777Z,175
2017-01-25T09:10:19.936Z,175
2017-01-25T09:11:20.737Z,175
2017-01-25T09:12:20.701Z,180
2017-01-25T09:13:20.262Z,180
2017-01-25T09:14:20.639Z,185
2017-01-25T09:15:20.212Z,180
2017-01-25T09:16:20.229Z,180
2017-01-25T09:17:20.574Z,180
2017-01-25T09:18:20.131Z,180
2017-01-25T09:19:20.113Z,180
2017-01-25T09:20:19.690Z,180
2017-01-25T09:21:20.055Z,180
2017-01-25T09:22:20.517Z,180
2017-01-25T09:23:19.592Z,180
2017-01-25T09:24:19.571Z,180
2017-01-25T09:25:19.549Z,180
2017-01-25T09:26:20.316Z,180
2017-01-25T09:27:19.888Z,180
2017-01-25T09:28:20.276Z,180
2017-01-25T09:29:20.235Z,180
2017-01-25T09:30:19.026Z,180
2017-01-25T09:31:19.802Z,180
2017-01-25T09:32:19.361Z,180
2017-01-25T09:33:19.352Z,180
2017-01-25T09:34:19.799Z,180
2017-01-25T09:35:20.069Z,165
2017-01-25T09:36:19.648Z,160
2017-01-25T09:37:19.628Z,165
2017-01-25T09:38:20.006Z,175
2017-01-25T09:39:19.968Z,180
2017-01-25T09:40:19.550Z,175
2017-01-25T09:41:19.908Z,170
2017-01-25T09:42:33.557Z,170
2017-01-25T09:43:19.854Z,180
2017-01-25T09:44:19.447Z,190
2017-01-25T09:45:19.794Z,190
2017-01-25T09:46:19.770Z,200
2017-01-25T09:47:19.351Z,205
2017-01-25T09:48:19.712Z,200
2017-01-25T09:49:19.287Z,180
2017-01-25T09:50:19.656Z,175
2017-01-25T09:51:19.215Z,180
2017-01-25T09:52:19.606Z,190
2017-01-25T09:53:18.773Z,205
2017-01-25T09:54:19.167Z,215
2017-01-25T09:55:19.516Z,215
2017-01-25T09:56:19.123Z,210
2017-01-25T09:57:19.047Z,220
2017-01-25T09:58:19.103Z,225
2017-01-25T09:59:18.657Z,225
2017-01-25T10:00:18.988Z,230
2017-01-25T10:01:18.952Z,235
2017-01-25T10:02:18.925Z,230
2017-01-25T10:03:19.320Z,230
2017-01-25T10:04:18.064Z,235
2017-01-25T10:05:18.889Z,235
2017-01-25T10:06:19.220Z,235
2017-01-25T10:07:19.088Z,225
2017-01-25T10:08:19.190Z,220
2017-01-25T10:09:17.931Z,220
2017-01-25T10:10:18.821Z,230
2017-01-25T10:11:18.333Z,235
2017-01-25T10:12:17.857Z,235
2017-01-25T10:13:19.111Z,235
2017-01-25T10:14:18.203Z,235
2017-01-25T10:15:17.825Z,235
2017-01-25T10:16:18.536Z,230
2017-01-25T10:17:18.156Z,235
2017-01-25T10:18:18.482Z,240
2017-01-25T10:19:18.043Z,240
2017-01-25T10:20:18.837Z,240
2017-01-25T10:21:18.858Z,240
2017-01-25T10:22:18.369Z,240
2017-01-25T10:23:18.392Z,240
2017-01-25T10:24:18.715Z,245
2017-01-25T10:25:17.888Z,255
2017-01-25T10:26:18.670Z,245
2017-01-25T10:27:17.437Z,245
2017-01-25T10:28:18.615Z,250
2017-01-25T10:29:17.769Z,250
2017-01-25T10:30:17.403Z,245
2017-01-25T10:31:17.327Z,240
2017-01-25T10:32:17.698Z,245
2017-01-25T10:33:17.287Z,250
2017-01-25T10:34:17.264Z,250
2017-01-25T10:35:18.011Z,245
2017-01-25T10:36:17.986Z,250
2017-01-25T10:37:16.752Z,250
2017-01-25T10:38:18.631Z,255
2017-01-25T10:39:17.949Z,255
2017-01-25T10:40:17.531Z,260
2017-01-25T10:41:17.045Z,255
2017-01-25T10:42:17.450Z,255
2017-01-25T10:43:18.197Z,255
2017-01-25T10:44:16.973Z,250
2017-01-25T10:45:17.338Z,250
2017-01-25T10:46:16.913Z,255
2017-01-25T10:47:17.350Z,255
2017-01-25T10:48:16.858Z,260
2017-01-25T10:49:17.233Z,260
2017-01-25T10:50:16.924Z,250
2017-01-25T10:51:17.577Z,245
2017-01-25T10:52:16.397Z,245
2017-01-25T10:53:17.123Z,250
2017-01-25T10:54:17.143Z,255
2017-01-25T10:55:16.274Z,255
2017-01-25T10:56:16.695Z,260
2017-01-25T10:57:16.616Z,255
2017-01-25T10:58:17.007Z,260
2017-01-25T10:59:16.246Z,260
2017-01-25T11:00:16.732Z,260
2017-01-25T11:01:17.323Z,260
2017-01-25T11:02:17.708Z,265
2017-01-25T11:03:16.460Z,260
2017-01-25T11:04:17.252Z,250
2017-01-25T11:05:16.137Z,250
2017-01-25T11:06:16.774Z,260
2017-01-25T11:07:16.773Z,265
2017-01-25T11:08:17.126Z,265
2017-01-25T11:09:16.295Z,260
2017-01-25T11:10:16.883Z,260
2017-01-25T11:11:16.226Z,265
2017-01-25T11:12:16.216Z,270
2017-01-25T11:13:16.984Z,275
2017-01-25T11:14:16.998Z,270
2017-01-25T11:15:16.557Z,270
2017-01-25T11:16:15.702Z,270
2017-01-25T11:17:16.877Z,265
2017-01-25T11:18:16.086Z,265
2017-01-25T11:19:17.251Z,265
2017-01-25T11:20:15.984Z,270
2017-01-25T11:21:16.822Z,265
2017-01-25T11:22:16.828Z,265
2017-01-25T11:23:15.910Z,260
2017-01-25T11:24:16.977Z,260
2017-01-25T11:25:16.286Z,255
2017-01-25T11:26:17.075Z,245
2017-01-25T11:27:31.477Z,245
2017-01-25T11:28:16.222Z,250
2017-01-25T11:29:16.844Z,250
2017-01-25T11:30:16.819Z,250
2017-01-25T11:31:16.099Z,250
2017-01-25T11:32:16.059Z,245
2017-01-25T11:33:16.440Z,240
2017-01-25T11:34:16.862Z,245
2017-01-25T11:35:16.395Z,250
2017-01-25T11:36:16.396Z,250
2017-01-25T11:37:15.931Z,250
2017-01-25T11:38:15.954Z,255
2017-01-25T11:39:15.874Z,255
2017-01-25T11:40:16.239Z,245
2017-01-25T11:41:16.218Z,235
2017-01-25T11:42:15.807Z,235
2017-01-25T11:43:16.566Z,235
2017-01-25T11:44:16.174Z,230
2017-01-25T11:45:15.725Z,230
2017-01-25T11:46:15.695Z,225
2017-01-25T11:47:15.682Z,225
2017-01-25T11:48:16.043Z,230
2017-01-25T11:49:15.526Z,235
2017-01-25T11:50:14.790Z,235
2017-01-25T11:51:16.375Z,240
2017-01-25T11:52:15.524Z,240
2017-01-25T11:53:15.818Z,245
2017-01-25T11:54:15.156Z,245
2017-01-25T11:55:15.486Z,245
2017-01-25T11:56:15.426Z,245
2017-01-25T11:57:15.408Z,240
2017-01-25T11:58:15.819Z,235
2017-01-25T11:59:15.836Z,225
2017-01-25T12:00:15.039Z,225
2017-01-25T12:01:15.340Z,225
2017-01-25T12:02:14.478Z,220
2017-01-25T12:03:15.663Z,225
2017-01-25T12:04:15.203Z,235
2017-01-25T12:05:15.194Z,225
2017-01-25T12:06:14.748Z,220
2017-01-25T12:07:15.726Z,215
2017-01-25T12:08:15.088Z,215
2017-01-25T12:09:15.464Z,215
2017-01-25T12:10:15.509Z,215
2017-01-25T12:11:15.519Z,215
2017-01-25T12:12:15.008Z,220
2017-01-25T12:13:15.454Z,215
2017-01-25T12:14:14.968Z,215
2017-01-25T12:15:14.521Z,210
2017-01-25T12:16:14.867Z,205
2017-01-25T12:17:15.263Z,195
2017-01-25T12:18:14.724Z,195
2017-01-25T12:19:15.193Z,190
2017-01-25T12:20:14.771Z,185
2017-01-25T12:21:15.609Z,195
2017-01-25T12:22:15.105Z,200
2017-01-25T12:23:15.480Z,205
2017-01-25T12:24:15.065Z,200
2017-01-25T12:25:15.034Z,205
2017-01-25T12:26:14.607Z,210
2017-01-25T12:27:14.176Z,215
2017-01-25T12:28:14.556Z,215
2017-01-25T12:29:15.323Z,215
2017-01-25T12:30:14.516Z,210
2017-01-25T12:31:14.867Z,225
2017-01-25T12:32:15.251Z,220
2017-01-25T12:33:14.809Z,210
2017-01-25T12:34:14.800Z,210
2017-01-25T12:35:15.183Z,215
2017-01-25T12:36:14.758Z,215
2017-01-25T12:37:15.106Z,220
2017-01-25T12:38:15.090Z,225
2017-01-25T12:39:15.055Z,230
2017-01-25T12:40:15.034Z,230
2017-01-25T12:41:14.680Z,220
2017-01-25T12:42:14.168Z,215
2017-01-25T12:43:14.941Z,220
2017-01-25T12:44:14.517Z,225
2017-01-25T12:45:14.887Z,215
2017-01-25T12:46:13.689Z,205
2017-01-25T12:47:14.835Z,205
2017-01-25T12:48:14.441Z,200
2017-01-25T12:49:15.093Z,195
2017-01-25T12:50:14.397Z,190
2017-01-25T12:51:14.379Z,185
2017-01-25T12:52:13.902Z,175
2017-01-25T12:53:14.720Z,175
2017-01-25T12:54:14.265Z,165
2017-01-25T12:55:14.225Z,170
2017-01-25T12:56:14.596Z,170
2017-01-25T12:57:14.162Z,160
2017-01-25T12:58:14.140Z,160
2017-01-25T12:59:13.720Z,160
2017-01-25T13:00:14.483Z,160
2017-01-25T13:01:14.072Z,160
2017-01-25T13:02:14.453Z,165
2017-01-25T13:03:14.002Z,170
2017-01-25T13:04:14.393Z,170
2017-01-25T13:05:13.546Z,170
2017-01-25T13:06:13.517Z,170
2017-01-25T13:07:13.899Z,180
2017-01-25T13:08:14.269Z,190
2017-01-25T13:09:14.268Z,185
2017-01-25T13:10:13.817Z,185
2017-01-25T13:11:13.818Z,190
2017-01-25T13:12:13.357Z,190
2017-01-25T13:13:13.728Z,190
2017-01-25T13:14:14.112Z,185
2017-01-25T13:15:14.080Z,185
2017-01-25T13:16:13.252Z,190
2017-01-25T13:17:14.021Z,180
2017-01-25T13:18:13.982Z,175
2017-01-25T13:19:13.962Z,175
2017-01-25T13:20:13.531Z,175
2017-01-25T13:21:13.508Z,170
2017-01-25T13:22:13.484Z,170
2017-01-25T13:23:13.105Z,170
2017-01-25T13:24:13.852Z,175
2017-01-25T13:25:13.404Z,175
2017-01-25T13:26:13.778Z,165
2017-01-25T13:27:13.379Z,160
2017-01-25T13:28:13.720Z,165
2017-01-25T13:29:13.688Z,170
2017-01-25T13:30:13.670Z,170
2017-01-25T13:31:13.242Z,160
2017-01-25T13:32:13.615Z,160
2017-01-25T13:33:13.585Z,165
2017-01-25T13:34:13.163Z,165
2017-01-25T13:35:12.731Z,160
2017-01-25T13:36:13.094Z,160
2017-01-25T13:37:13.488Z,155
2017-01-25T13:38:13.449Z,155
2017-01-25T13:39:13.022Z,150
2017-01-25T13:40:12.990Z,150
2017-01-25T13:41:13.369Z,155
2017-01-25T13:42:13.339Z,150
2017-01-25T13:43:12.964Z,145
2017-01-25T13:44:12.885Z,145
2017-01-25T13:45:12.857Z,145
2017-01-25T13:46:12.832Z,135
2017-01-25T13:47:13.206Z,135
2017-01-25T13:48:13.171Z,140
2017-01-25T13:49:12.763Z,140
2017-01-25T13:50:13.126Z,140
2017-01-25T13:51:13.096Z,130
2017-01-25T13:52:12.674Z,115
2017-01-25T13:53:12.641Z,105
2017-01-25T13:54:12.669Z,105
2017-01-25T13:55:12.975Z,105
2017-01-25T13:56:12.740Z,105
2017-01-25T13:57:12.979Z,105
2017-01-25T13:58:12.902Z,105
2017-01-25T13:59:12.474Z,105
2017-01-25T14:00:12.893Z,105
2017-01-25T14:01:12.818Z,110
2017-01-25T14:02:12.416Z,115
2017-01-25T14:03:12.548Z,115
2017-01-25T14:04:12.335Z,115
2017-01-25T14:05:12.312Z,110
2017-01-25T14:06:12.334Z,115
2017-01-25T14:07:12.278Z,110
2017-01-25T14:08:12.633Z,105
2017-01-25T14:09:12.601Z,100
2017-01-25T14:10:12.467Z,95
2017-01-25T14:11:12.152Z,95
2017-01-25T14:12:12.527Z,90
2017-01-25T14:13:12.093Z,90
2017-01-25T14:14:12.065Z,90
2017-01-25T14:15:12.495Z,90
2017-01-25T14:16:12.040Z,95
2017-01-25T14:17:12.393Z,95
2017-01-25T14:18:12.006Z,90